createdAt,value
2018-06-17T00:00:25.286Z,19.40
2018-06-17T00:02:53.481Z,19.40
2018-06-17T00:05:21.761Z,19.40
2018-06-17T00:07:50.049Z,19.30
2018-06-17T00:10:18.293Z,19.30
2018-06-17T00:12:46.540Z,19.20
2018-06-17T00:15:14.751Z,19.20
2018-06-17T00:17:42.958Z,19.30
2018-06-17T00:20:11.209Z,19.30
2018-06-17T00:22:39.394Z,19.30
2018-06-17T00:25:07.688Z,19.30
2018-06-17T00:27:35.965Z,19.30
2018-06-17T00:30:04.421Z,19.20
2018-06-17T00:32:32.662Z,19.10
2018-06-17T00:35:00.870Z,19.10
2018-06-17T00:37:29.069Z,19.10
2018-06-17T00:39:57.265Z,19.00
2018-06-17T00:42:25.462Z,19.00
2018-06-17T00:44:53.693Z,19.00
2018-06-17T00:47:22.020Z,19.00
2018-06-17T00:49:50.181Z,19.00
2018-06-17T00:52:18.482Z,19.00
2018-06-17T00:54:46.697Z,19.00
2018-06-17T00:57:26.326Z,19.00
2018-06-17T00:59:54.550Z,19.00
2018-06-17T01:02:23.214Z,19.10
2018-06-17T01:04:51.414Z,19.00
2018-06-17T01:07:19.694Z,19.00
2018-06-17T01:09:47.950Z,19.00
2018-06-17T01:12:16.184Z,19.00
2018-06-17T01:14:44.381Z,19.00
2018-06-17T01:17:12.610Z,19.00
2018-06-17T01:19:40.807Z,19.00
2018-06-17T01:22:09.416Z,19.00
2018-06-17T01:24:37.655Z,19.00
2018-06-17T01:27:05.878Z,19.00
2018-06-17T01:29:34.429Z,19.00
2018-06-17T01:32:02.648Z,18.90
2018-06-17T01:34:30.926Z,18.90
2018-06-17T01:36:59.185Z,18.90
2018-06-17T01:39:27.397Z,18.90
2018-06-17T01:41:55.629Z,18.90
2018-06-17T01:44:23.825Z,18.80
2018-06-17T01:46:52.069Z,18.80
2018-06-17T01:49:20.289Z,18.80
2018-06-17T01:51:48.504Z,18.80
2018-06-17T01:54:16.712Z,18.80
2018-06-17T01:56:44.934Z,18.70
2018-06-17T01:59:13.145Z,18.70
2018-06-17T02:01:41.341Z,18.70
2018-06-17T02:04:15.022Z,18.70
2018-06-17T02:06:48.706Z,18.70
2018-06-17T02:09:22.303Z,18.60
2018-06-17T02:11:55.984Z,18.60
2018-06-17T02:14:29.684Z,18.60
2018-06-17T02:16:57.946Z,18.60
2018-06-17T02:19:26.202Z,18.50
2018-06-17T02:21:54.481Z,18.60
2018-06-17T02:24:22.741Z,18.50
2018-06-17T02:26:50.941Z,18.50
2018-06-17T02:29:19.121Z,18.50
2018-06-17T02:31:47.360Z,18.50
2018-06-17T02:34:15.577Z,18.60
2018-06-17T02:36:43.813Z,18.60
2018-06-17T02:39:12.172Z,18.60
2018-06-17T02:41:40.451Z,18.60
2018-06-17T02:44:08.671Z,18.60
2018-06-17T02:46:42.489Z,18.60
2018-06-17T02:49:16.506Z,18.70
2018-06-17T02:51:50.306Z,18.70
2018-06-17T02:54:24.006Z,18.70
2018-06-17T02:56:52.242Z,18.70
2018-06-17T02:59:20.452Z,18.80
2018-06-17T03:01:48.666Z,18.80
2018-06-17T03:04:16.884Z,18.80
2018-06-17T03:06:45.087Z,18.90
2018-06-17T03:09:13.330Z,18.90
2018-06-17T03:11:41.539Z,18.90
2018-06-17T03:14:09.732Z,18.90
2018-06-17T03:16:38.438Z,18.90
2018-06-17T03:19:06.958Z,18.90
2018-06-17T03:21:35.203Z,18.80
2018-06-17T03:24:03.451Z,18.80
2018-06-17T03:26:37.018Z,18.80
2018-06-17T03:29:10.398Z,18.80
2018-06-17T03:31:44.191Z,18.80
2018-06-17T03:34:12.438Z,18.80
2018-06-17T03:36:40.640Z,18.80
2018-06-17T03:39:08.840Z,18.90
2018-06-17T03:41:37.099Z,18.90
2018-06-17T03:44:05.397Z,18.90
2018-06-17T03:46:33.637Z,18.90
2018-06-17T03:49:01.857Z,18.90
2018-06-17T03:51:30.250Z,18.90
2018-06-17T03:53:58.674Z,18.90
2018-06-17T03:56:26.862Z,18.90
2018-06-17T03:58:55.113Z,19.00
2018-06-17T04:01:23.398Z,19.00
2018-06-17T04:03:51.589Z,19.10
2018-06-17T04:06:19.849Z,19.10
2018-06-17T04:08:48.026Z,19.10
2018-06-17T04:11:16.270Z,19.20
2018-06-17T04:16:12.450Z,19.20
2018-06-17T04:18:40.703Z,19.20
2018-06-17T04:23:36.889Z,19.20
2018-06-17T04:26:05.473Z,19.30
2018-06-17T04:28:33.742Z,19.30
2018-06-17T04:31:01.979Z,19.30
2018-06-17T04:33:30.239Z,19.40
2018-06-17T04:35:58.469Z,19.40
2018-06-17T04:38:26.672Z,19.40
2018-06-17T04:40:54.872Z,19.50
2018-06-17T04:43:23.078Z,19.60
2018-06-17T04:45:51.333Z,19.60
2018-06-17T04:48:19.549Z,19.70
2018-06-17T04:50:47.742Z,19.70
2018-06-17T04:53:15.970Z,19.70
2018-06-17T04:55:44.189Z,19.70
2018-06-17T04:58:12.402Z,19.60
2018-06-17T05:00:40.634Z,19.60
2018-06-17T05:03:08.851Z,19.60
2018-06-17T05:05:37.090Z,19.60
2018-06-17T05:08:05.359Z,19.60
2018-06-17T05:10:33.581Z,19.60
2018-06-17T05:13:01.785Z,19.60
2018-06-17T05:15:29.989Z,19.60
2018-06-17T05:17:58.234Z,19.70
2018-06-17T05:20:26.474Z,19.70
2018-06-17T05:22:54.749Z,19.70
2018-06-17T05:25:22.980Z,19.80
2018-06-17T05:27:51.177Z,19.80
2018-06-17T05:30:19.365Z,19.90
2018-06-17T05:32:47.658Z,20.00
2018-06-17T05:35:15.833Z,20.10
2018-06-17T05:37:44.073Z,20.10
2018-06-17T05:40:12.269Z,20.20
2018-06-17T05:42:40.509Z,20.20
2018-06-17T05:45:08.959Z,20.30
2018-06-17T05:47:37.233Z,20.30
2018-06-17T05:50:05.376Z,20.50
2018-06-17T05:52:33.602Z,20.60
2018-06-17T05:55:01.827Z,20.70
2018-06-17T05:57:30.014Z,20.70
2018-06-17T05:59:58.225Z,20.60
2018-06-17T06:02:26.493Z,20.60
2018-06-17T06:04:54.690Z,20.60
2018-06-17T06:07:22.906Z,20.60
2018-06-17T06:09:51.131Z,20.60
2018-06-17T06:12:19.414Z,20.70
2018-06-17T06:14:47.626Z,20.70
2018-06-17T06:17:15.841Z,20.80
2018-06-17T06:19:44.029Z,20.80
2018-06-17T06:22:12.251Z,20.90
2018-06-17T06:24:40.583Z,20.90
2018-06-17T06:27:08.754Z,21.00
2018-06-17T06:29:36.981Z,21.00
2018-06-17T06:32:05.187Z,21.00
2018-06-17T06:34:33.385Z,21.10
2018-06-17T06:37:01.639Z,21.20
2018-06-17T06:39:29.833Z,21.20
2018-06-17T06:41:58.038Z,21.20
2018-06-17T06:44:26.278Z,21.20
2018-06-17T06:46:54.509Z,21.20
2018-06-17T06:49:22.707Z,21.20
2018-06-17T06:51:50.934Z,21.10
2018-06-17T06:54:19.167Z,21.10
2018-06-17T06:56:47.381Z,21.00
2018-06-17T06:59:15.609Z,21.10
2018-06-17T07:01:55.070Z,21.10
2018-06-17T07:04:34.645Z,21.10
2018-06-17T07:07:14.173Z,21.10
2018-06-17T07:09:56.530Z,21.20
2018-06-17T07:12:24.758Z,21.30
2018-06-17T07:14:53.008Z,21.50
2018-06-17T07:17:32.615Z,21.60
2018-06-17T07:20:01.069Z,21.60
2018-06-17T07:22:29.322Z,21.70
2018-06-17T07:24:57.584Z,21.70
2018-06-17T07:27:37.071Z,21.80
2018-06-17T07:30:05.282Z,21.80
2018-06-17T07:32:33.547Z,21.90
2018-06-17T07:35:01.709Z,22.00
2018-06-17T07:37:29.924Z,22.10
2018-06-17T07:40:18.395Z,22.10
2018-06-17T07:42:47.629Z,22.20
2018-06-17T07:45:15.837Z,22.40
2018-06-17T07:47:44.030Z,22.40
2018-06-17T07:50:23.719Z,22.50
2018-06-17T07:53:27.099Z,22.60
2018-06-17T07:55:55.444Z,22.70
2018-06-17T07:58:23.621Z,22.80
2018-06-17T08:00:51.842Z,22.90
2018-06-17T08:03:20.070Z,23.10
2018-06-17T08:05:48.289Z,23.30
2018-06-17T08:08:16.519Z,23.40
2018-06-17T08:10:44.781Z,23.60
2018-06-17T08:13:12.988Z,24.10
2018-06-17T08:15:41.242Z,24.60
2018-06-17T08:18:09.443Z,25.30
2018-06-17T08:20:37.678Z,25.60
2018-06-17T08:23:05.873Z,25.10
2018-06-17T08:25:34.079Z,24.90
2018-06-17T08:28:02.350Z,24.60
2018-06-17T08:30:30.577Z,24.40
2018-06-17T08:32:58.762Z,24.90
2018-06-17T08:35:27.065Z,25.20
2018-06-17T08:37:55.274Z,25.10
2018-06-17T08:40:23.469Z,25.00
2018-06-17T08:42:51.723Z,24.60
2018-06-17T08:45:19.958Z,24.30
2018-06-17T08:47:48.193Z,24.30
2018-06-17T08:50:16.399Z,24.30
2018-06-17T08:52:44.638Z,24.60
2018-06-17T08:55:12.856Z,25.20
2018-06-17T08:57:41.129Z,25.60
2018-06-17T09:00:09.540Z,25.20
2018-06-17T09:02:37.763Z,25.20
2018-06-17T09:05:05.996Z,25.40
2018-06-17T09:07:34.236Z,25.60
2018-06-17T09:10:02.461Z,25.50
2018-06-17T09:12:30.661Z,25.50
2018-06-17T09:14:58.903Z,25.40
2018-06-17T09:17:27.362Z,25.20
2018-06-17T09:19:55.614Z,25.20
2018-06-17T09:22:23.833Z,25.10
2018-06-17T09:24:52.045Z,24.90
2018-06-17T09:27:20.265Z,24.90
2018-06-17T09:29:48.438Z,24.70
2018-06-17T09:32:16.684Z,24.50
2018-06-17T09:34:44.879Z,24.40
2018-06-17T09:37:13.134Z,24.50
2018-06-17T09:39:41.361Z,24.70
2018-06-17T09:42:09.586Z,24.50
2018-06-17T09:44:38.728Z,24.40
2018-06-17T09:47:06.998Z,24.50
2018-06-17T09:49:35.216Z,24.60
2018-06-17T09:52:03.595Z,24.90
2018-06-17T09:54:31.800Z,25.10
2018-06-17T09:57:00.076Z,25.20
2018-06-17T09:59:28.286Z,25.20
2018-06-17T10:01:56.608Z,25.20
2018-06-17T10:04:24.817Z,25.10
2018-06-17T10:06:53.063Z,25.00
2018-06-17T10:09:21.264Z,25.00
2018-06-17T10:11:49.474Z,25.00
2018-06-17T10:14:17.709Z,25.10
2018-06-17T10:16:45.941Z,25.00
2018-06-17T10:19:14.192Z,24.90
2018-06-17T10:21:42.401Z,24.80
2018-06-17T10:24:10.717Z,24.60
2018-06-17T10:26:38.946Z,24.40
2018-06-17T10:29:07.267Z,24.10
2018-06-17T10:31:35.476Z,24.20
2018-06-17T10:34:03.751Z,24.40
2018-06-17T10:36:31.973Z,24.30
2018-06-17T10:39:00.219Z,24.30
2018-06-17T10:41:28.394Z,24.30
2018-06-17T10:43:56.693Z,24.10
2018-06-17T10:46:24.905Z,23.90
2018-06-17T10:48:53.331Z,24.20
2018-06-17T10:51:22.984Z,24.60
2018-06-17T10:53:51.188Z,24.90
2018-06-17T10:56:19.424Z,25.30
2018-06-17T10:58:47.773Z,25.50
2018-06-17T11:01:16.032Z,25.70
2018-06-17T11:03:44.226Z,25.70
2018-06-17T11:06:12.510Z,25.40
2018-06-17T11:08:40.740Z,25.40
2018-06-17T11:13:37.073Z,24.60
2018-06-17T11:16:05.338Z,24.40
2018-06-17T11:18:33.591Z,24.10
2018-06-17T11:21:01.817Z,24.20
2018-06-17T11:23:30.058Z,24.50
2018-06-17T11:25:58.297Z,24.80
2018-06-17T11:28:26.511Z,24.60
2018-06-17T11:30:54.742Z,24.60
2018-06-17T11:33:22.928Z,24.30
2018-06-17T11:35:51.130Z,24.10
2018-06-17T11:38:19.390Z,24.00
2018-06-17T11:40:47.754Z,23.80
2018-06-17T11:43:16.081Z,23.80
2018-06-17T11:45:44.436Z,23.80
2018-06-17T11:48:12.674Z,23.70
2018-06-17T11:50:40.923Z,23.60
2018-06-17T11:53:10.090Z,23.50
2018-06-17T11:55:38.323Z,23.50
2018-06-17T11:58:06.506Z,22.30
2018-06-17T12:00:34.777Z,23.30
2018-06-17T12:03:02.966Z,23.20
2018-06-17T12:05:31.226Z,23.30
2018-06-17T12:07:59.461Z,23.20
2018-06-17T12:10:27.673Z,23.00
2018-06-17T12:12:55.996Z,22.80
2018-06-17T12:15:24.223Z,22.80
2018-06-17T12:17:52.426Z,22.70
2018-06-17T12:20:20.637Z,22.80
2018-06-17T12:22:48.876Z,22.70
2018-06-17T12:25:17.075Z,22.60
2018-06-17T12:27:45.402Z,22.50
2018-06-17T12:30:13.641Z,22.50
2018-06-17T12:32:41.841Z,22.60
2018-06-17T12:35:10.047Z,22.60
2018-06-17T12:37:38.347Z,22.80
2018-06-17T12:40:06.609Z,22.70
2018-06-17T12:42:34.854Z,22.50
2018-06-17T12:45:03.541Z,22.50
2018-06-17T12:47:31.762Z,22.40
2018-06-17T12:50:00.075Z,22.30
2018-06-17T12:52:28.293Z,22.40
2018-06-17T12:54:57.186Z,22.40
2018-06-17T12:57:25.433Z,22.30
2018-06-17T12:59:53.618Z,22.50
2018-06-17T13:02:21.892Z,22.40
2018-06-17T13:04:50.154Z,22.60
2018-06-17T13:07:18.411Z,22.60
2018-06-17T13:09:46.749Z,22.40
2018-06-17T13:12:15.015Z,22.20
2018-06-17T13:14:43.238Z,22.20
2018-06-17T13:17:11.461Z,22.10
2018-06-17T13:19:39.655Z,21.90
2018-06-17T13:22:07.895Z,21.90
2018-06-17T13:24:36.142Z,22.00
2018-06-17T13:27:04.371Z,21.90
2018-06-17T13:29:32.544Z,21.80
2018-06-17T13:32:00.787Z,21.80
2018-06-17T13:34:28.981Z,22.00
2018-06-17T13:36:57.289Z,22.30
2018-06-17T13:39:25.605Z,22.60
2018-06-17T13:41:53.801Z,22.70
2018-06-17T13:44:21.995Z,22.80
2018-06-17T13:46:50.225Z,22.70
2018-06-17T13:49:18.416Z,22.70
2018-06-17T13:51:46.655Z,22.90
2018-06-17T13:54:14.901Z,22.80
2018-06-17T13:56:43.174Z,22.60
2018-06-17T13:59:11.417Z,22.40
2018-06-17T14:01:39.612Z,22.40
2018-06-17T14:04:07.860Z,22.40
2018-06-17T14:06:36.081Z,22.40
2018-06-17T14:09:07.149Z,22.30
2018-06-17T14:11:35.386Z,22.20
2018-06-17T14:14:03.831Z,22.10
2018-06-17T14:16:32.025Z,22.20
2018-06-17T14:19:00.406Z,22.00
2018-06-17T14:21:28.799Z,21.90
2018-06-17T14:23:57.106Z,21.70
2018-06-17T14:26:25.362Z,21.50
2018-06-17T14:28:53.653Z,21.50
2018-06-17T14:31:21.938Z,21.70
2018-06-17T14:33:50.206Z,21.80
2018-06-17T14:36:18.430Z,21.90
2018-06-17T14:38:46.809Z,22.10
2018-06-17T14:41:19.165Z,22.20
2018-06-17T14:43:53.217Z,22.20
2018-06-17T14:46:26.912Z,22.30
2018-06-17T14:49:00.304Z,22.20
2018-06-17T14:51:33.761Z,21.90
2018-06-17T14:54:02.014Z,21.70
2018-06-17T14:56:30.213Z,21.60
2018-06-17T14:58:58.413Z,21.60
2018-06-17T15:01:26.605Z,21.70
2018-06-17T15:03:54.954Z,21.70
2018-06-17T15:06:23.038Z,21.60
2018-06-17T15:08:51.227Z,21.50
2018-06-17T15:11:19.442Z,21.50
2018-06-17T15:13:47.670Z,21.60
2018-06-17T15:16:15.944Z,21.60
2018-06-17T15:18:44.217Z,21.60
2018-06-17T15:21:12.425Z,21.60
2018-06-17T15:23:40.646Z,21.60
2018-06-17T15:26:08.849Z,21.50
2018-06-17T15:28:37.112Z,21.40
2018-06-17T15:31:10.922Z,21.50
2018-06-17T15:33:44.529Z,21.60
2018-06-17T15:36:18.150Z,21.80
2018-06-17T15:38:57.106Z,22.00
2018-06-17T15:41:26.422Z,21.90
2018-06-17T15:43:56.242Z,21.60
2018-06-17T15:46:24.943Z,21.40
2018-06-17T15:48:53.206Z,21.20
2018-06-17T15:51:22.367Z,21.10
2018-06-17T15:53:50.678Z,21.20
2018-06-17T15:56:18.925Z,21.40
2018-06-17T15:58:47.173Z,21.70
2018-06-17T16:01:15.370Z,21.80
2018-06-17T16:03:43.653Z,21.80
2018-06-17T16:06:11.962Z,21.70
2018-06-17T16:08:40.192Z,21.70
2018-06-17T16:11:08.399Z,21.80
2018-06-17T16:16:15.576Z,21.70
2018-06-17T16:18:49.275Z,21.80
2018-06-17T16:21:17.538Z,21.70
2018-06-17T16:23:45.838Z,21.50
2018-06-17T16:26:14.073Z,21.40
2018-06-17T16:28:42.287Z,21.50
2018-06-17T16:31:10.489Z,21.60
2018-06-17T16:33:38.759Z,21.50
2018-06-17T16:36:06.992Z,21.50
2018-06-17T16:38:35.308Z,21.50
2018-06-17T16:41:03.519Z,21.50
2018-06-17T16:43:31.746Z,21.60
2018-06-17T16:45:59.981Z,21.50
2018-06-17T16:48:28.309Z,21.40
2018-06-17T16:53:35.318Z,21.20
2018-06-17T16:56:08.797Z,21.30
2018-06-17T16:58:42.493Z,21.20
2018-06-17T17:01:10.794Z,21.30
2018-06-17T17:03:39.025Z,21.40
2018-06-17T17:06:07.289Z,21.40
2018-06-17T17:08:35.572Z,21.50
2018-06-17T17:11:03.861Z,21.40
2018-06-17T17:13:32.065Z,21.40
2018-06-17T17:16:00.277Z,21.20
2018-06-17T17:18:28.489Z,21.10
2018-06-17T17:20:56.738Z,21.00
2018-06-17T17:23:25.028Z,20.90
2018-06-17T17:25:54.149Z,21.00
2018-06-17T17:28:22.363Z,21.00
2018-06-17T17:30:50.852Z,21.00
2018-06-17T17:33:24.587Z,21.10
2018-06-17T17:35:58.298Z,21.20
2018-06-17T17:38:29.079Z,21.10
2018-06-17T17:41:00.614Z,21.10
2018-06-17T17:43:28.830Z,21.10
2018-06-17T17:46:02.565Z,21.10
2018-06-17T17:48:31.005Z,21.00
2018-06-17T17:50:59.329Z,20.90
2018-06-17T17:53:27.609Z,20.90
2018-06-17T17:55:55.866Z,20.90
2018-06-17T17:58:24.069Z,21.00
2018-06-17T18:00:52.308Z,20.90
2018-06-17T18:03:20.518Z,20.90
2018-06-17T18:05:48.722Z,20.90
2018-06-17T18:08:17.012Z,19.50
2018-06-17T18:10:45.214Z,20.90
2018-06-17T18:13:13.500Z,20.80
2018-06-17T18:15:41.682Z,20.80
2018-06-17T18:18:09.896Z,20.80
2018-06-17T18:20:38.240Z,20.80
2018-06-17T18:23:06.383Z,20.90
2018-06-17T18:25:39.905Z,21.00
2018-06-17T18:29:13.277Z,21.00
2018-06-17T18:31:46.910Z,21.10
2018-06-17T18:34:20.623Z,21.10
2018-06-17T18:36:48.948Z,21.00
2018-06-17T18:39:17.162Z,21.00
2018-06-17T18:41:45.406Z,21.10
2018-06-17T18:44:13.620Z,21.10
2018-06-17T18:46:41.814Z,21.10
2018-06-17T18:49:10.042Z,21.10
2018-06-17T18:51:38.290Z,21.10
2018-06-17T18:54:06.502Z,21.00
2018-06-17T18:56:34.708Z,20.90
2018-06-17T18:59:02.938Z,20.80
2018-06-17T19:01:31.373Z,20.80
2018-06-17T19:03:59.652Z,20.60
2018-06-17T19:06:27.830Z,20.50
2018-06-17T19:09:01.595Z,20.40
2018-06-17T19:11:35.349Z,20.40
2018-06-17T19:14:08.927Z,20.30
2018-06-17T19:16:42.541Z,20.30
2018-06-17T19:19:10.786Z,20.20
2018-06-17T19:21:39.019Z,20.20
2018-06-17T19:24:07.318Z,20.10
2018-06-17T19:26:36.121Z,20.20
2018-06-17T19:29:04.634Z,20.10
2018-06-17T19:31:32.855Z,20.10
2018-06-17T19:34:01.180Z,20.10
2018-06-17T19:36:29.821Z,20.10
2018-06-17T19:38:58.191Z,20.20
2018-06-17T19:41:26.530Z,20.20
2018-06-17T19:43:56.002Z,20.20
2018-06-17T19:46:24.395Z,20.20
2018-06-17T19:48:54.154Z,20.30
2018-06-17T19:51:27.880Z,20.30
2018-06-17T19:54:01.642Z,20.40
2018-06-17T19:57:33.813Z,20.40
2018-06-17T20:00:40.125Z,20.50
2018-06-17T20:03:08.486Z,20.50
2018-06-17T20:05:36.675Z,20.50
2018-06-17T20:08:04.966Z,20.50
2018-06-17T20:10:33.325Z,20.50
2018-06-17T20:13:01.674Z,20.50
2018-06-17T20:15:30.521Z,20.60
2018-06-17T20:17:58.731Z,20.60
2018-06-17T20:20:27.009Z,20.60
2018-06-17T20:25:23.266Z,20.70
2018-06-17T20:27:51.477Z,20.70
2018-06-17T20:30:19.690Z,20.70
2018-06-17T20:32:53.379Z,20.70
2018-06-17T20:35:27.160Z,20.70
2018-06-17T20:38:00.861Z,20.70
2018-06-17T20:40:34.642Z,20.60
2018-06-17T20:43:08.211Z,20.60
2018-06-17T20:45:36.410Z,20.60
2018-06-17T20:48:04.682Z,20.60
2018-06-17T20:50:32.926Z,20.60
2018-06-17T20:53:01.139Z,20.60
2018-06-17T20:55:29.350Z,20.60
2018-06-17T20:57:57.574Z,20.60
2018-06-17T21:00:25.770Z,20.60
2018-06-17T21:02:54.002Z,20.60
2018-06-17T21:05:22.212Z,20.60
2018-06-17T21:07:50.427Z,20.60
2018-06-17T21:10:18.652Z,20.60
2018-06-17T21:12:46.863Z,20.60
2018-06-17T21:15:17.093Z,20.60
2018-06-17T21:17:45.929Z,20.60
2018-06-17T21:20:19.617Z,20.60
2018-06-17T21:22:53.280Z,20.60
2018-06-17T21:25:26.993Z,20.60
2018-06-17T21:27:57.462Z,20.50
2018-06-17T21:30:25.742Z,20.50
2018-06-17T21:32:54.066Z,20.40
2018-06-17T21:35:22.270Z,20.40
2018-06-17T21:37:50.611Z,20.40
2018-06-17T21:40:18.824Z,20.40
2018-06-17T21:42:47.097Z,20.40
2018-06-17T21:45:15.385Z,20.30
2018-06-17T21:47:43.910Z,20.30
2018-06-17T21:50:12.495Z,20.30
2018-06-17T21:52:40.765Z,20.30
2018-06-17T21:55:09.187Z,20.30
2018-06-17T21:57:37.474Z,20.30
2018-06-17T22:00:07.286Z,20.30
2018-06-17T22:02:39.821Z,20.30
2018-06-17T22:05:08.019Z,20.30
2018-06-17T22:07:40.504Z,20.30
2018-06-17T22:10:14.071Z,20.30
2018-06-17T22:12:42.914Z,20.30
2018-06-17T22:15:16.676Z,20.30
2018-06-17T22:17:51.386Z,20.30
2018-06-17T22:20:19.902Z,20.30
2018-06-17T22:22:48.270Z,20.30
2018-06-17T22:27:44.873Z,20.30
2018-06-17T22:30:14.081Z,20.30
2018-06-17T22:32:42.318Z,20.30
2018-06-17T22:35:10.564Z,20.30
2018-06-17T22:37:39.744Z,20.30
2018-06-17T22:40:08.023Z,20.30
2018-06-17T22:42:36.513Z,20.20
2018-06-17T22:45:05.274Z,20.20
2018-06-17T22:47:38.858Z,20.20
2018-06-17T22:50:07.542Z,20.30
2018-06-17T22:52:47.194Z,20.30
2018-06-17T22:55:15.444Z,20.20
2018-06-17T22:57:48.978Z,20.30
2018-06-17T23:00:22.419Z,20.30
2018-06-17T23:02:56.055Z,20.30
2018-06-17T23:05:29.775Z,20.30
2018-06-17T23:08:03.511Z,20.30
2018-06-17T23:10:31.739Z,20.30
2018-06-17T23:13:00.261Z,20.30
2018-06-17T23:15:28.444Z,20.30
2018-06-17T23:17:56.718Z,20.20
2018-06-17T23:20:24.941Z,20.20
2018-06-17T23:22:53.315Z,20.20
2018-06-17T23:25:21.666Z,20.10
2018-06-17T23:27:49.921Z,20.10
2018-06-17T23:30:18.241Z,20.10
2018-06-17T23:32:46.421Z,20.10
2018-06-17T23:35:14.651Z,20.10
2018-06-17T23:37:42.932Z,20.10
2018-06-17T23:40:11.193Z,20.10
2018-06-17T23:42:39.403Z,20.10
2018-06-17T23:45:07.651Z,20.10
2018-06-17T23:47:41.358Z,20.00
2018-06-17T23:50:15.171Z,20.00
2018-06-17T23:52:48.601Z,20.00
2018-06-17T23:55:22.282Z,20.00
2018-06-17T23:57:50.482Z,20.00
